createdAt,value
2023-01-02T07:13:27.635Z,101198.91
2023-01-02T07:16:07.917Z,101194.63
2023-01-02T07:18:45.086Z,101184.72
2023-01-02T07:21:22.610Z,101183.94
2023-01-02T07:23:59.618Z,101182.13
2023-01-02T07:26:37.017Z,101167.81
2023-01-02T07:29:16.576Z,101162.19
2023-01-02T07:31:53.813Z,101160.41
2023-01-02T07:34:33.483Z,101163.78
2023-01-02T07:37:10.753Z,101156.56
2023-01-02T07:39:47.606Z,101148.84
2023-01-02T07:42:24.928Z,101149.38
2023-01-02T07:45:05.005Z,101148.53
2023-01-02T07:47:42.731Z,101158.28
2023-01-02T07:50:20.180Z,101154.69
2023-01-02T07:52:58.074Z,101161.81
2023-01-02T07:55:35.145Z,101160.75
2023-01-02T07:58:13.543Z,101152.97
2023-01-02T08:00:57.282Z,101150.13
2023-01-02T08:03:39.125Z,101142.16
2023-01-02T08:06:18.741Z,101141.44
2023-01-02T08:08:56.404Z,101135.88
2023-01-02T08:11:33.294Z,101134.19
2023-01-02T08:14:10.677Z,101133.47
2023-01-02T08:16:50.307Z,101128.91
2023-01-02T08:19:27.656Z,101128.03
2023-01-02T08:22:04.765Z,101131.56
2023-01-02T08:24:42.105Z,101130.81
2023-01-02T08:27:19.036Z,101143.09
2023-01-02T08:29:56.723Z,101139.50
2023-01-02T08:32:40.690Z,101139.31
2023-01-02T08:35:18.205Z,101128.03
2023-01-02T08:37:55.203Z,101112.13
2023-01-02T08:40:32.523Z,101115.72
2023-01-02T08:43:11.411Z,101112.13
2023-01-02T08:45:48.895Z,101106.16
2023-01-02T08:48:28.451Z,101111.47
2023-01-02T08:51:06.384Z,101107.22
2023-01-02T08:53:43.269Z,101105.34
2023-01-02T08:56:29.272Z,101110.72
2023-01-02T08:59:09.389Z,101102.75
2023-01-02T09:01:46.878Z,101092.88
2023-01-02T09:04:26.537Z,101090.66
2023-01-02T09:07:03.981Z,101095.84
2023-01-02T09:09:41.101Z,101088.00
2023-01-02T09:12:18.420Z,101088.34
2023-01-02T09:14:55.339Z,101088.13
2023-01-02T09:17:33.017Z,101074.94
2023-01-02T09:20:13.710Z,101078.13
2023-01-02T09:22:51.055Z,101079.84
2023-01-02T09:25:28.153Z,101084.41
2023-01-02T09:28:05.618Z,101068.38
2023-01-02T09:30:43.954Z,101064.13
2023-01-02T09:33:21.525Z,101049.81
2023-01-02T09:36:04.471Z,101049.69
2023-01-02T09:38:42.892Z,101041.41
2023-01-02T09:41:38.234Z,101039.28
2023-01-02T09:44:21.985Z,101037.38
2023-01-02T09:47:04.137Z,101038.00
2023-01-02T09:49:47.579Z,101028.25
2023-01-02T09:52:32.237Z,101029.84
2023-01-02T09:55:20.068Z,101017.50
2023-01-02T09:58:04.915Z,101022.41
2023-01-02T10:00:43.243Z,101022.16
2023-01-02T10:03:31.488Z,101024.59
2023-01-02T10:06:18.048Z,101013.78
2023-01-02T10:09:10.562Z,101012.72
2023-01-02T10:12:00.098Z,101002.72
2023-01-02T10:14:57.049Z,100990.41
2023-01-02T10:17:40.810Z,100993.78
2023-01-02T10:20:28.085Z,100989.94
2023-01-02T10:23:10.021Z,100993.47
2023-01-02T10:25:54.979Z,100982.50
2023-01-02T10:28:44.613Z,100971.66
2023-01-02T10:31:27.801Z,100966.88
2023-01-02T10:34:06.904Z,100966.41
2023-01-02T10:36:47.156Z,100972.47
2023-01-02T10:39:28.397Z,100959.06
2023-01-02T10:42:09.478Z,100957.78
2023-01-02T10:44:49.988Z,100955.38
2023-01-02T10:47:37.202Z,100945.41
2023-01-02T10:50:22.693Z,100951.31
2023-01-02T10:53:11.924Z,100948.44
2023-01-02T10:55:49.556Z,100934.19
2023-01-02T10:58:31.907Z,100943.63
2023-01-02T11:01:18.819Z,100939.53
2023-01-02T11:04:16.901Z,100938.59
2023-01-02T11:06:59.214Z,100941.00
2023-01-02T11:09:38.295Z,100947.81
2023-01-02T11:12:21.300Z,100936.09
2023-01-02T11:15:26.740Z,100929.69
2023-01-02T11:18:04.955Z,100935.63
2023-01-02T11:20:42.244Z,100927.75
2023-01-02T11:23:24.619Z,100929.00
2023-01-02T11:26:02.134Z,100930.22
2023-01-02T11:28:42.867Z,100924.41
2023-01-02T11:31:23.079Z,100927.56
2023-01-02T11:34:13.287Z,100923.63
2023-01-02T11:37:05.013Z,100925.19
2023-01-02T11:39:43.439Z,100915.78
2023-01-02T11:42:40.675Z,100907.19
2023-01-02T11:45:21.225Z,100898.84
2023-01-02T11:48:06.062Z,100886.03
2023-01-02T11:50:43.491Z,100883.88
2023-01-02T11:53:25.781Z,100877.31
2023-01-02T11:56:12.966Z,100887.34
2023-01-02T11:58:58.620Z,100902.25
2023-01-02T12:01:49.624Z,100889.16
2023-01-02T12:04:29.890Z,100888.91
2023-01-02T12:07:25.625Z,100886.13
2023-01-02T12:10:14.242Z,100867.13
2023-01-02T12:13:06.294Z,100867.13
2023-01-02T12:16:30.118Z,100861.91
2023-01-02T12:19:53.969Z,100841.16
2023-01-02T12:23:10.262Z,100846.25
2023-01-02T12:26:08.850Z,100844.06
2023-01-02T12:29:48.223Z,100826.13
2023-01-02T12:33:08.568Z,100845.00
2023-01-02T12:36:30.212Z,100840.25
2023-01-02T12:39:36.551Z,100834.94
2023-01-02T12:42:29.621Z,100833.81
2023-01-02T12:45:07.793Z,100833.81
2023-01-02T12:48:04.345Z,100830.81
2023-01-02T12:51:00.300Z,100828.72
2023-01-02T12:54:18.820Z,100837.41
2023-01-02T12:57:08.289Z,100834.03
2023-01-02T13:00:18.903Z,100834.25
2023-01-02T13:03:36.886Z,100832.56
2023-01-02T13:06:46.046Z,100828.69
2023-01-02T13:09:28.591Z,100826.44
2023-01-02T13:12:14.861Z,100826.44
2023-01-02T13:14:58.036Z,100826.91
2023-01-02T13:17:48.376Z,100832.94
2023-01-02T13:20:41.583Z,100832.84
2023-01-02T13:23:34.442Z,100830.03
2023-01-02T13:26:19.258Z,100827.38
2023-01-02T13:29:07.253Z,100839.78
2023-01-02T13:31:50.623Z,100834.44
2023-01-02T13:34:32.233Z,100817.34
2023-01-02T13:37:13.586Z,100812.84
2023-01-02T13:39:55.323Z,100814.78
2023-01-02T13:42:50.116Z,100808.50
2023-01-02T13:45:33.183Z,100796.00
2023-01-02T13:48:21.896Z,100803.63
2023-01-02T13:51:08.572Z,100798.53
2023-01-02T13:53:48.248Z,100800.50
2023-01-02T13:56:27.606Z,100809.19
2023-01-02T13:59:41.484Z,100789.56
2023-01-02T14:02:22.818Z,100789.56
2023-01-02T14:05:00.383Z,100783.53
2023-01-02T14:07:49.667Z,100789.56
2023-01-02T14:10:44.372Z,100785.91
2023-01-02T14:13:35.981Z,100795.63
2023-01-02T14:16:55.792Z,100803.38
2023-01-02T14:19:33.033Z,100806.44
2023-01-02T14:22:17.622Z,100812.56
2023-01-02T14:24:57.359Z,100811.63
2023-01-02T14:27:37.559Z,100809.66
2023-01-02T14:30:17.777Z,100808.94
2023-01-02T14:32:57.937Z,100803.63
2023-01-02T14:35:37.672Z,100798.28
2023-01-02T14:38:22.149Z,100799.25
2023-01-02T14:41:20.590Z,100806.44
2023-01-02T14:43:55.341Z,100818.91
2023-01-02T14:46:34.509Z,100807.53
2023-01-02T14:49:27.154Z,100803.63
2023-01-02T14:52:09.374Z,100817.91
2023-01-02T14:54:53.961Z,100801.66
2023-01-02T14:57:37.321Z,100795.47
2023-01-02T15:00:30.496Z,100798.28
2023-01-02T15:03:29.352Z,100809.81
2023-01-02T15:06:16.649Z,100805.56
2023-01-02T15:08:56.603Z,100804.47
2023-01-02T15:11:46.132Z,100805.28
2023-01-02T15:14:24.353Z,100805.44
2023-01-02T15:17:03.750Z,100795.63
2023-01-02T15:19:42.925Z,100807.00
2023-01-02T15:22:30.465Z,100809.50
2023-01-02T15:25:08.164Z,100806.13
2023-01-02T15:27:58.064Z,100805.28
2023-01-02T15:30:39.019Z,100810.63
2023-01-02T15:33:30.367Z,100805.28
2023-01-02T15:36:14.767Z,100801.81
2023-01-02T15:38:54.851Z,100798.28
2023-01-02T15:41:31.889Z,100810.63
2023-01-02T15:44:24.210Z,100812.31
2023-01-02T15:47:01.570Z,100815.13
2023-01-02T15:49:40.964Z,100816.81
2023-01-02T15:52:25.943Z,100810.13
2023-01-02T15:55:06.181Z,100815.44
2023-01-02T15:57:51.135Z,100811.81
2023-01-02T16:00:40.403Z,100816.00
2023-01-02T16:04:01.832Z,100819.81
2023-01-02T16:06:41.740Z,100807.59
2023-01-02T16:09:26.102Z,100803.53
2023-01-02T16:12:07.808Z,100801.72
2023-01-02T16:14:51.072Z,100789.09
2023-01-02T16:17:31.909Z,100799.19
2023-01-02T16:20:19.446Z,100798.34
2023-01-02T16:23:00.927Z,100792.59
2023-01-02T16:25:40.371Z,100791.66
2023-01-02T16:28:34.660Z,100782.66
2023-01-02T16:31:16.707Z,100786.31
2023-01-02T16:33:54.351Z,100789.94
2023-01-02T16:36:31.837Z,100788.97
2023-01-02T16:39:44.400Z,100788.00
2023-01-02T16:42:38.074Z,100793.47
2023-01-02T16:45:18.890Z,100798.66
2023-01-02T16:47:55.743Z,100792.16
2023-01-02T16:50:33.363Z,100802.56
2023-01-02T16:53:12.628Z,100809.97
2023-01-02T16:55:50.340Z,100809.16
2023-01-02T16:58:27.461Z,100810.13
2023-01-02T17:01:07.812Z,100797.50
2023-01-02T17:03:45.681Z,100815.69
2023-01-02T17:06:24.719Z,100815.69
2023-01-02T17:09:01.624Z,100817.66
2023-01-02T17:12:00.347Z,100826.75
2023-01-02T17:14:37.888Z,100811.75
2023-01-02T17:17:17.805Z,100820.56
2023-01-02T17:19:54.601Z,100811.47
2023-01-02T17:22:35.131Z,100805.28
2023-01-02T17:25:16.899Z,100804.47
2023-01-02T17:27:54.420Z,100811.63
2023-01-02T17:30:32.016Z,100816.25
2023-01-02T17:33:13.000Z,100811.16
2023-01-02T17:35:51.196Z,100813.97
2023-01-02T17:38:28.516Z,100809.44
2023-01-02T17:41:05.915Z,100805.13
2023-01-02T17:44:02.080Z,100806.78
2023-01-02T17:49:43.801Z,100808.34
2023-01-02T17:52:21.108Z,100807.53
2023-01-02T17:54:58.857Z,100811.16
2023-01-02T17:57:37.931Z,100804.88
2023-01-02T18:00:19.242Z,100811.88
2023-01-02T18:02:58.432Z,100818.91
2023-01-02T18:05:40.450Z,100811.47
2023-01-02T18:08:17.855Z,100807.25
2023-01-02T18:10:55.614Z,100801.91
2023-01-02T18:13:33.945Z,100811.47
2023-01-02T18:16:21.486Z,100810.13
2023-01-02T18:19:01.836Z,100808.41
2023-01-02T18:21:42.934Z,100809.84
2023-01-02T18:24:32.608Z,100806.50
2023-01-02T18:27:25.261Z,100816.00
2023-01-02T18:30:08.981Z,100816.88
2023-01-02T18:32:48.521Z,100821.22
2023-01-02T18:35:56.841Z,100821.94
2023-01-02T18:38:34.619Z,100810.31
2023-01-02T18:41:21.883Z,100811.88
2023-01-02T18:44:10.671Z,100811.03
2023-01-02T18:47:03.882Z,100819.97
2023-01-02T18:49:46.434Z,100817.78
2023-01-02T18:52:31.584Z,100819.19
2023-01-02T18:55:35.417Z,100813.66
2023-01-02T18:58:42.738Z,100812.28
2023-01-02T19:01:33.194Z,100813.69
2023-01-02T19:04:34.092Z,100799.13
2023-01-02T19:07:28.561Z,100804.50
2023-01-02T19:10:36.545Z,100817.44
2023-01-02T19:13:22.752Z,100814.47
2023-01-02T19:16:02.853Z,100826.72
2023-01-02T19:18:45.343Z,100836.28
2023-01-02T19:21:38.027Z,100845.84
2023-01-02T19:24:23.002Z,100850.06
2023-01-02T19:27:12.970Z,100850.91
2023-01-02T19:29:52.847Z,100842.75
2023-01-02T19:32:33.444Z,100854.00
2023-01-02T19:36:00.573Z,100865.19
2023-01-02T19:38:40.571Z,100855.56
2023-01-02T19:41:40.701Z,100872.13
2023-01-02T19:44:20.752Z,100856.91
2023-01-02T19:46:58.524Z,100842.53
2023-01-02T19:49:36.186Z,100856.16
2023-01-02T19:52:17.992Z,100871.16
2023-01-02T19:54:55.778Z,100855.72
2023-01-02T19:57:34.290Z,100876.44
2023-01-02T20:00:21.233Z,100874.41
2023-01-02T20:03:04.595Z,100890.03
2023-01-02T20:05:43.333Z,100904.44
2023-01-02T20:08:23.624Z,100909.06
2023-01-02T20:11:02.130Z,100918.25
2023-01-02T20:13:48.832Z,100939.56
2023-01-02T20:16:30.310Z,100962.75
2023-01-02T20:19:09.016Z,100947.44
2023-01-02T20:21:50.255Z,100954.69
2023-01-02T20:24:29.053Z,100952.81
2023-01-02T20:27:07.183Z,100955.47
2023-01-02T20:29:45.995Z,100968.41
2023-01-02T20:32:28.350Z,100965.38
2023-01-02T20:35:12.397Z,100971.91
2023-01-02T20:37:52.831Z,100970.47
2023-01-02T20:40:31.813Z,100964.03
2023-01-02T20:43:10.174Z,100995.94
2023-01-02T20:45:52.520Z,101000.56
2023-01-02T20:48:33.633Z,101003.81
2023-01-02T20:51:12.123Z,101011.97
2023-01-02T20:53:49.867Z,101006.88
2023-01-02T20:56:28.531Z,101038.63
2023-01-02T20:59:07.752Z,101025.72
2023-01-02T21:01:46.686Z,101023.44
2023-01-02T21:04:36.605Z,101031.13
2023-01-02T21:07:15.938Z,101035.72
2023-01-02T21:09:58.209Z,101041.53
2023-01-02T21:12:49.318Z,101057.44
2023-01-02T21:15:38.778Z,101061.03
2023-01-02T21:18:20.123Z,101055.72
2023-01-02T21:21:04.010Z,101083.03
2023-01-02T21:23:45.290Z,101073.78
2023-01-02T21:26:25.071Z,101088.66
2023-01-02T21:29:03.440Z,101087.50
